Time;durP1;ratioP1;P1;durP2;ratioP2;P2;SDS_P1;SDS_P2;PMS_P1;PMS_P2;Temp;Humidity;BMP_temperature;BMP_pressure;BME280_temperature;BME280_humidity;BME280_pressure;Samples;Min_cycle;Max_cycle;Signal;HPM_P1;HPM_P2
2022/09/22 00:00:59;;;;;;;7.53;4.10;;;8.00;90.70;;;;;;5045542;28;20510;-70
2022/09/22 00:03:29;;;;;;;7.77;4.40;;;7.90;90.70;;;;;;5049205;28;20415;-70
2022/09/22 00:06:00;;;;;;;5.90;4.40;;;8.10;90.60;;;;;;5048316;28;20895;-69
2022/09/22 00:08:29;;;;;;;7.97;4.50;;;8.10;90.30;;;;;;5049245;28;20586;-70
2022/09/22 00:11:27;;;;;;;5.93;4.30;;;8.10;90.30;;;;;;5048290;28;20520;-71
2022/09/22 00:13:57;;;;;;;7.40;4.20;;;8.00;90.30;;;;;;5045621;28;20803;-70
2022/09/22 00:16:37;;;;;;;7.37;4.07;;;7.90;90.50;;;;;;5042082;28;20453;-69
2022/09/22 00:19:08;;;;;;;5.60;3.57;;;7.80;90.70;;;;;;5046357;28;21335;-71
2022/09/22 00:21:34;;;;;;;6.40;3.40;;;7.80;90.80;;;;;;5046424;28;20425;-70
2022/09/22 00:24:01;;;;;;;5.60;3.70;;;7.80;90.80;;;;;;5046453;28;20446;-69
2022/09/22 00:26:27;;;;;;;9.00;5.13;;;7.80;90.90;;;;;;5040902;28;20902;-70
2022/09/22 00:28:53;;;;;;;5.77;4.13;;;7.80;91.00;;;;;;5041320;28;20917;-70
2022/09/22 00:31:22;;;;;;;7.60;4.47;;;7.80;91.10;;;;;;5043754;28;20569;-70
2022/09/22 00:33:48;;;;;;;5.90;4.13;;;7.90;91.00;;;;;;5040323;28;20173;-69
2022/09/22 00:36:15;;;;;;;7.20;4.30;;;7.90;90.80;;;;;;5041928;28;20450;-70
2022/09/22 00:38:42;;;;;;;7.97;4.53;;;7.90;90.60;;;;;;5038534;28;20423;-71
2022/09/22 00:41:14;;;;;;;7.47;4.30;;;7.90;90.50;;;;;;5047709;28;20411;-69
2022/09/22 00:43:40;;;;;;;6.23;4.47;;;7.70;90.60;;;;;;5038351;28;20430;-70
2022/09/22 00:46:27;;;;;;;6.77;4.47;;;7.70;90.80;;;;;;5047241;28;20897;-70
2022/09/22 00:48:59;;;;;;;7.30;4.73;;;7.60;90.90;;;;;;5040032;28;20530;-70
2022/09/22 00:51:29;;;;;;;14.77;7.47;;;7.60;91.00;;;;;;5043325;28;20858;-69
2022/09/22 00:53:57;;;;;;;13.20;7.90;;;7.60;91.10;;;;;;5042506;28;20424;-70
2022/09/22 00:56:31;;;;;;;11.40;5.47;;;7.60;91.10;;;;;;5042299;28;20456;-70
2022/09/22 00:59:02;;;;;;;9.60;5.97;;;7.60;91.20;;;;;;5044135;28;20427;-69
2022/09/22 01:01:28;;;;;;;11.80;5.33;;;7.60;91.40;;;;;;5045033;28;20468;-70
2022/09/22 01:03:55;;;;;;;10.70;5.53;;;7.50;91.40;;;;;;5041478;28;20427;-71
2022/09/22 01:06:26;;;;;;;7.90;5.20;;;7.50;91.40;;;;;;5047053;28;20634;-70
2022/09/22 01:08:53;;;;;;;5.97;4.30;;;7.50;91.60;;;;;;5048633;28;20582;-71
2022/09/22 01:11:19;;;;;;;7.80;4.10;;;7.60;91.40;;;;;;5041864;28;20609;-70
2022/09/22 01:14:00;;;;;;;9.20;5.07;;;7.60;91.10;;;;;;5044328;28;20918;-71
2022/09/22 01:16:49;;;;;;;7.47;4.60;;;7.70;90.90;;;;;;5038614;28;20517;-69
2022/09/22 01:19:45;;;;;;;4.27;3.10;;;7.60;90.70;;;;;;5041171;28;21002;-70
2022/09/22 01:22:15;;;;;;;5.33;3.30;;;7.70;90.80;;;;;;5038923;28;20455;-69
2022/09/22 01:25:22;;;;;;;4.30;3.63;;;7.60;90.80;;;;;;5039036;28;20439;-70
2022/09/22 01:28:00;;;;;;;5.03;3.60;;;7.50;90.90;;;;;;5033439;28;20432;-69
2022/09/22 01:30:42;;;;;;;4.00;3.00;;;7.50;91.10;;;;;;5039189;28;20459;-69
2022/09/22 01:33:25;;;;;;;6.20;3.30;;;7.40;91.20;;;;;;5039234;28;20422;-70
2022/09/22 01:36:19;;;;;;;5.23;3.10;;;7.50;91.30;;;;;;5043253;28;20487;-70
2022/09/22 01:39:07;;;;;;;4.47;3.00;;;7.50;91.20;;;;;;5041708;28;20432;-71
2022/09/22 01:41:44;;;;;;;4.97;3.07;;;7.50;91.10;;;;;;5043708;28;20446;-70
2022/09/22 01:44:37;;;;;;;9.70;3.27;;;7.40;91.10;;;;;;5036718;28;20424;-69
2022/09/22 01:47:11;;;;;;;5.00;3.60;;;7.30;91.30;;;;;;5044998;28;20494;-69
2022/09/22 01:49:42;;;;;;;4.93;3.60;;;7.30;91.50;;;;;;5037495;28;20442;-69
2022/09/22 01:52:17;;;;;;;5.53;4.10;;;7.30;91.60;;;;;;5044827;28;20883;-70
2022/09/22 01:54:53;;;;;;;8.03;4.90;;;7.40;91.70;;;;;;5044576;28;20901;-69
2022/09/22 01:57:26;;;;;;;6.53;4.40;;;7.30;91.60;;;;;;5039866;28;20865;-70
2022/09/22 01:59:59;;;;;;;7.07;4.30;;;7.30;91.70;;;;;;5043659;28;20415;-69
2022/09/22 02:02:34;;;;;;;10.27;4.50;;;7.30;91.60;;;;;;5043358;28;20419;-69
2022/09/22 02:05:04;;;;;;;6.60;4.10;;;7.30;91.50;;;;;;5047320;28;20426;-70
2022/09/22 02:07:33;;;;;;;7.70;4.07;;;7.20;91.50;;;;;;5043895;28;20531;-69
2022/09/22 02:10:06;;;;;;;5.20;3.37;;;7.10;91.80;;;;;;5055569;28;20419;-72
2022/09/22 02:12:34;;;;;;;5.00;3.60;;;7.20;91.90;;;;;;5045083;28;20412;-70
2022/09/22 02:15:00;;;;;;;7.00;4.50;;;7.10;92.00;;;;;;5043236;28;20411;-69
2022/09/22 02:17:26;;;;;;;9.23;4.50;;;7.10;92.20;;;;;;5034061;28;20490;-70
2022/09/22 02:19:51;;;;;;;5.70;3.70;;;7.20;92.20;;;;;;5041663;28;20208;-71
2022/09/22 02:22:17;;;;;;;8.00;3.40;;;7.20;92.30;;;;;;5036475;28;20185;-71
2022/09/22 02:24:45;;;;;;;7.30;4.10;;;7.10;92.30;;;;;;5041156;28;20185;-70
2022/09/22 02:27:24;;;;;;;6.80;4.10;;;7.10;92.30;;;;;;5039936;28;20258;-70
2022/09/22 02:30:00;;;;;;;4.67;3.80;;;7.20;92.20;;;;;;5041073;28;20427;-71
2022/09/22 02:32:28;;;;;;;7.53;3.80;;;7.20;92.00;;;;;;5040518;28;20466;-70
2022/09/22 02:34:54;;;;;;;6.00;4.17;;;7.10;91.90;;;;;;5037717;28;20918;-69
2022/09/22 02:37:29;;;;;;;5.10;3.83;;;7.10;91.80;;;;;;5038749;28;20985;-71
2022/09/22 02:40:22;;;;;;;9.17;4.63;;;7.00;92.00;;;;;;5039419;28;20420;-71
2022/09/22 02:43:08;;;;;;;8.33;4.50;;;7.00;92.20;;;;;;5042486;28;20477;-71
2022/09/22 02:45:54;;;;;;;8.87;4.53;;;7.00;92.10;;;;;;5037313;28;20470;-71
2022/09/22 02:48:42;;;;;;;11.43;4.50;;;6.90;92.10;;;;;;5043160;28;20515;-70
2022/09/22 02:51:08;;;;;;;6.07;4.17;;;6.90;92.10;;;;;;5040064;28;20497;-70
2022/09/22 02:53:35;;;;;;;7.33;4.10;;;6.80;92.10;;;;;;5043801;28;20423;-71
2022/09/22 02:56:01;;;;;;;8.03;4.73;;;6.80;92.20;;;;;;5040543;28;20461;-70
2022/09/22 02:58:27;;;;;;;6.27;4.60;;;6.70;92.30;;;;;;5038125;28;20412;-71
2022/09/22 03:00:52;;;;;;;8.27;4.50;;;6.60;92.50;;;;;;5039368;28;20852;-71
2022/09/22 03:03:18;;;;;;;7.13;4.83;;;6.60;92.80;;;;;;5037250;28;20271;-70
2022/09/22 03:05:44;;;;;;;10.90;4.83;;;6.60;93.00;;;;;;5037770;28;20215;-70
2022/09/22 03:08:09;;;;;;;10.73;4.90;;;6.60;93.10;;;;;;5037640;28;20185;-70
2022/09/22 03:10:35;;;;;;;5.07;3.87;;;6.70;92.90;;;;;;5041859;28;20219;-69
2022/09/22 03:13:01;;;;;;;7.50;5.10;;;6.70;92.70;;;;;;5038257;28;20173;-71
2022/09/22 03:15:26;;;;;;;9.03;4.10;;;6.60;92.70;;;;;;5039549;28;20196;-70
2022/09/22 03:17:52;;;;;;;10.43;4.37;;;6.50;92.70;;;;;;5039369;28;20192;-70
2022/09/22 03:20:17;;;;;;;7.90;4.57;;;6.50;92.80;;;;;;5038458;28;20234;-70
2022/09/22 03:22:43;;;;;;;6.27;4.00;;;6.50;92.90;;;;;;5038944;28;20176;-70
2022/09/22 03:25:09;;;;;;;11.60;5.33;;;6.40;92.90;;;;;;5036999;28;20180;-70
2022/09/22 03:27:35;;;;;;;6.50;4.17;;;6.40;93.10;;;;;;5040642;28;20191;-70
2022/09/22 03:30:03;;;;;;;5.93;4.00;;;6.40;93.30;;;;;;5043636;28;20403;-70
2022/09/22 03:32:29;;;;;;;8.50;5.20;;;6.50;93.30;;;;;;5042069;28;20465;-72
2022/09/22 03:34:55;;;;;;;8.63;5.17;;;6.50;93.30;;;;;;5038747;28;20415;-70
2022/09/22 03:37:21;;;;;;;6.03;4.70;;;6.50;93.20;;;;;;5037746;28;20752;-69
2022/09/22 03:39:46;;;;;;;9.47;5.03;;;6.60;93.00;;;;;;5041933;28;20427;-70
2022/09/22 03:42:12;;;;;;;10.80;5.77;;;6.50;92.80;;;;;;5044283;28;20184;-70
2022/09/22 03:44:38;;;;;;;8.60;5.27;;;6.50;92.80;;;;;;5042020;28;20192;-71
2022/09/22 03:47:03;;;;;;;7.57;4.67;;;6.50;92.90;;;;;;5039362;28;20287;-72
2022/09/22 03:49:30;;;;;;;5.83;4.80;;;6.50;92.80;;;;;;5039905;28;20710;-70
2022/09/22 03:51:56;;;;;;;7.37;5.00;;;6.50;92.60;;;;;;5033878;28;20251;-70
2022/09/22 03:54:21;;;;;;;6.60;4.70;;;6.50;92.40;;;;;;5040388;28;20411;-70
2022/09/22 03:56:47;;;;;;;6.77;4.90;;;6.50;92.30;;;;;;5040135;28;20867;-71
2022/09/22 03:59:13;;;;;;;11.73;5.07;;;6.40;92.30;;;;;;5040223;28;20208;-71
2022/09/22 04:01:39;;;;;;;14.13;6.50;;;6.40;92.40;;;;;;5037863;28;20573;-71
2022/09/22 04:04:05;;;;;;;9.23;5.70;;;6.40;92.60;;;;;;5038479;28;20522;-70
2022/09/22 04:06:30;;;;;;;9.20;5.40;;;6.30;92.60;;;;;;5040189;28;20457;-71
2022/09/22 04:08:56;;;;;;;8.97;6.10;;;6.40;92.90;;;;;;5038087;28;20672;-70
2022/09/22 04:11:23;;;;;;;13.70;6.70;;;6.40;92.80;;;;;;5045972;28;20267;-70
2022/09/22 04:13:49;;;;;;;8.30;5.43;;;6.30;92.80;;;;;;5037628;28;20174;-70
2022/09/22 04:16:14;;;;;;;8.40;5.33;;;6.30;93.00;;;;;;5043242;28;21056;-70
2022/09/22 04:18:40;;;;;;;11.07;5.40;;;6.40;93.10;;;;;;5036441;28;20522;-69
2022/09/22 04:21:06;;;;;;;8.00;5.10;;;6.40;93.10;;;;;;5045998;28;20173;-70
2022/09/22 04:23:32;;;;;;;6.97;4.80;;;6.40;93.00;;;;;;5038374;28;20189;-71
2022/09/22 04:25:58;;;;;;;9.57;4.93;;;6.40;92.90;;;;;;5042705;28;20463;-70
2022/09/22 04:28:24;;;;;;;7.23;4.70;;;6.40;92.80;;;;;;5032565;28;21070;-69
2022/09/22 04:30:49;;;;;;;6.90;4.73;;;6.40;92.80;;;;;;5041926;28;20463;-69
2022/09/22 04:33:16;;;;;;;6.10;4.67;;;6.30;92.80;;;;;;5033718;28;20930;-71
2022/09/22 04:35:41;;;;;;;7.90;5.00;;;6.30;92.90;;;;;;5036404;28;21102;-71
2022/09/22 04:38:08;;;;;;;8.93;5.00;;;6.30;92.80;;;;;;5039196;28;20420;-71
2022/09/22 04:40:34;;;;;;;6.33;4.90;;;6.30;92.90;;;;;;5043024;28;20445;-71
2022/09/22 04:42:59;;;;;;;6.50;5.07;;;6.30;93.00;;;;;;5041907;28;20471;-70
2022/09/22 04:45:25;;;;;;;14.73;5.10;;;6.30;93.00;;;;;;5043306;28;21877;-70
2022/09/22 04:47:51;;;;;;;8.73;5.57;;;6.30;93.00;;;;;;5038176;28;20321;-70
2022/09/22 04:50:19;;;;;;;7.17;4.57;;;6.30;93.00;;;;;;5044496;28;20216;-70
2022/09/22 04:52:52;;;;;;;11.30;4.77;;;6.30;93.10;;;;;;5034702;28;20420;-72
2022/09/22 04:55:19;;;;;;;7.53;4.67;;;6.30;93.10;;;;;;5042095;28;20762;-70
2022/09/22 04:57:53;;;;;;;10.93;5.23;;;6.40;93.20;;;;;;5044276;28;20790;-70
2022/09/22 05:00:21;;;;;;;8.30;5.10;;;6.30;93.10;;;;;;5042925;28;20420;-71
2022/09/22 05:02:47;;;;;;;8.13;5.27;;;6.30;93.20;;;;;;5043939;28;20416;-70
2022/09/22 05:05:13;;;;;;;8.67;5.50;;;6.30;93.10;;;;;;5042405;28;20553;-70
2022/09/22 05:07:45;;;;;;;9.17;5.40;;;6.20;93.00;;;;;;5042150;28;20513;-71
2022/09/22 05:10:11;;;;;;;9.47;5.50;;;6.20;93.10;;;;;;5043686;28;20513;-70
2022/09/22 05:12:41;;;;;;;10.47;4.97;;;6.20;93.10;;;;;;5045639;28;20411;-71
2022/09/22 05:15:09;;;;;;;6.70;5.07;;;6.20;93.10;;;;;;5043620;28;20416;-70
2022/09/22 05:17:35;;;;;;;7.30;5.20;;;6.20;92.90;;;;;;5045441;28;20457;-70
2022/09/22 05:20:04;;;;;;;7.47;5.33;;;6.20;92.80;;;;;;5044093;28;20438;-69
2022/09/22 05:22:30;;;;;;;7.90;6.03;;;6.10;92.80;;;;;;5044326;28;20791;-69
2022/09/22 05:24:56;;;;;;;11.07;5.60;;;6.10;92.90;;;;;;5045521;28;20557;-70
2022/09/22 05:27:22;;;;;;;8.73;5.57;;;6.10;93.00;;;;;;5045740;28;20525;-71
2022/09/22 05:29:48;;;;;;;10.30;5.10;;;6.10;93.00;;;;;;5039039;28;20431;-70
2022/09/22 05:32:13;;;;;;;9.30;5.90;;;6.10;93.20;;;;;;5045468;28;20205;-70
2022/09/22 05:34:39;;;;;;;9.40;5.60;;;6.10;93.30;;;;;;5034546;28;20177;-70
2022/09/22 05:37:05;;;;;;;8.53;5.63;;;6.10;93.40;;;;;;5042565;28;20592;-70
2022/09/22 05:39:30;;;;;;;9.63;5.83;;;6.20;93.20;;;;;;5034463;28;20679;-70
2022/09/22 05:41:56;;;;;;;8.97;6.10;;;6.20;93.20;;;;;;5047939;28;20192;-70
2022/09/22 05:44:22;;;;;;;12.63;6.40;;;6.20;93.20;;;;;;5040089;28;20267;-71
2022/09/22 05:46:48;;;;;;;9.30;6.23;;;6.20;93.20;;;;;;5041960;28;20208;-71
2022/09/22 05:49:14;;;;;;;6.67;5.20;;;6.20;93.30;;;;;;5040170;28;20765;-69
2022/09/22 05:51:39;;;;;;;7.40;5.87;;;6.20;93.50;;;;;;5042293;28;20978;-70
2022/09/22 05:54:05;;;;;;;8.37;4.93;;;6.20;93.60;;;;;;5037740;28;20193;-70
2022/09/22 05:56:31;;;;;;;9.47;5.30;;;6.10;93.70;;;;;;5041517;28;20208;-71
2022/09/22 05:58:56;;;;;;;13.20;6.00;;;6.20;93.80;;;;;;5042223;28;20192;-70
2022/09/22 06:01:22;;;;;;;8.63;5.50;;;6.20;93.90;;;;;;5045340;28;21076;-70
2022/09/22 06:03:47;;;;;;;10.00;6.90;;;6.30;94.10;;;;;;5043969;28;20181;-69
2022/09/22 06:06:13;;;;;;;8.47;5.80;;;6.40;94.00;;;;;;5049878;28;20213;-71
2022/09/22 06:08:40;;;;;;;10.93;6.40;;;6.50;93.60;;;;;;5040984;28;20186;-70
2022/09/22 06:11:06;;;;;;;8.37;5.47;;;6.50;93.40;;;;;;5040198;28;20477;-71
2022/09/22 06:13:31;;;;;;;10.70;5.90;;;6.60;93.20;;;;;;5047994;28;20749;-70
2022/09/22 06:15:59;;;;;;;11.30;6.60;;;6.60;92.80;;;;;;5044941;28;20554;-70
2022/09/22 06:18:25;;;;;;;10.23;6.20;;;6.60;92.50;;;;;;5041942;28;20200;-71
2022/09/22 06:20:51;;;;;;;10.47;6.60;;;6.60;92.50;;;;;;5037700;28;20423;-71
2022/09/22 06:23:17;;;;;;;11.20;5.90;;;6.60;92.40;;;;;;5040931;28;20426;-71
2022/09/22 06:25:43;;;;;;;10.93;6.60;;;6.70;92.40;;;;;;5037663;28;20454;-70
2022/09/22 06:28:12;;;;;;;11.23;6.50;;;6.70;92.50;;;;;;5046819;28;20180;-68
2022/09/22 06:30:41;;;;;;;11.50;6.77;;;6.70;92.60;;;;;;5036540;28;20462;-71
2022/09/22 06:33:10;;;;;;;10.90;6.73;;;6.70;92.60;;;;;;5038271;28;20411;-71
2022/09/22 06:35:36;;;;;;;11.07;6.70;;;6.70;92.60;;;;;;5035477;28;20455;-70
2022/09/22 06:38:04;;;;;;;15.83;7.63;;;6.70;92.80;;;;;;5043444;28;20419;-70
2022/09/22 06:40:31;;;;;;;12.93;7.90;;;6.70;93.00;;;;;;5036426;28;20446;-70
2022/09/22 06:42:58;;;;;;;10.20;6.77;;;6.70;93.20;;;;;;5043318;28;20455;-69
2022/09/22 06:45:30;;;;;;;12.40;7.10;;;6.80;93.40;;;;;;5040525;28;20570;-69
2022/09/22 06:47:57;;;;;;;11.20;7.03;;;6.90;93.50;;;;;;5044721;28;20461;-71
2022/09/22 06:50:23;;;;;;;16.00;9.30;;;7.00;93.50;;;;;;5042270;28;20408;-69
2022/09/22 06:52:50;;;;;;;11.53;7.50;;;7.10;93.50;;;;;;5042575;28;20910;-69
2022/09/22 06:55:18;;;;;;;10.50;7.30;;;7.10;93.40;;;;;;5038908;28;20897;-71
2022/09/22 06:57:43;;;;;;;10.60;7.20;;;7.20;93.40;;;;;;5043637;28;20416;-70
2022/09/22 07:00:10;;;;;;;13.03;7.43;;;7.20;93.30;;;;;;5047296;28;20948;-69
2022/09/22 07:02:35;;;;;;;11.60;8.20;;;7.30;93.30;;;;;;5041879;28;20335;-70
2022/09/22 07:05:01;;;;;;;8.70;6.53;;;7.30;93.20;;;;;;5045686;28;20977;-70
2022/09/22 07:07:30;;;;;;;12.20;6.40;;;7.30;93.00;;;;;;5038194;28;20196;-71
2022/09/22 07:09:56;;;;;;;15.47;7.13;;;7.40;92.90;;;;;;5038839;28;20181;-70
2022/09/22 07:12:22;;;;;;;12.03;8.60;;;7.60;92.70;;;;;;5035276;28;21020;-70
2022/09/22 07:14:48;;;;;;;11.93;7.87;;;7.60;92.50;;;;;;5044157;28;20423;-71
2022/09/22 07:17:17;;;;;;;11.67;7.47;;;7.70;92.30;;;;;;5037686;28;20201;-69
2022/09/22 07:19:45;;;;;;;11.33;7.23;;;7.80;91.90;;;;;;5043822;28;20430;-69
2022/09/22 07:22:14;;;;;;;12.27;7.97;;;7.80;91.80;;;;;;5037942;28;20412;-70
2022/09/22 07:24:43;;;;;;;12.70;8.43;;;7.80;91.70;;;;;;5042877;28;20419;-68
2022/09/22 07:27:09;;;;;;;15.03;8.30;;;7.90;91.60;;;;;;5039851;28;20874;-70
2022/09/22 07:29:36;;;;;;;13.60;8.30;;;7.90;91.50;;;;;;5041819;28;20482;-70
2022/09/22 07:32:02;;;;;;;13.37;8.10;;;8.00;91.20;;;;;;5040041;28;20481;-70
2022/09/22 07:34:28;;;;;;;12.23;8.03;;;8.10;91.00;;;;;;5038922;28;20438;-69
2022/09/22 07:36:53;;;;;;;11.70;8.43;;;8.10;90.80;;;;;;5035578;28;21268;-71
2022/09/22 07:39:19;;;;;;;15.77;8.30;;;8.20;90.90;;;;;;5042252;28;20183;-70
2022/09/22 07:41:46;;;;;;;14.63;9.27;;;8.30;90.90;;;;;;5038416;28;20876;-70
2022/09/22 07:46:58;;;;;;;15.60;9.73;;;8.40;90.90;;;;;;5042151;28;20563;-70
2022/09/22 07:49:24;;;;;;;23.67;11.27;;;8.60;90.90;;;;;;5039834;28;20430;-68
2022/09/22 07:51:53;;;;;;;22.03;10.93;;;8.70;90.60;;;;;;5044994;28;20561;-71
2022/09/22 07:54:20;;;;;;;16.73;11.17;;;8.80;90.50;;;;;;5041038;28;20655;-68
2022/09/22 07:56:46;;;;;;;20.40;11.17;;;8.90;90.40;;;;;;5038344;28;20828;-71
2022/09/22 07:59:15;;;;;;;15.17;10.17;;;9.10;90.20;;;;;;5036928;28;20431;-71
2022/09/22 08:01:46;;;;;;;25.83;10.63;;;9.20;90.00;;;;;;5043820;28;20454;-71
2022/09/22 08:04:17;;;;;;;29.13;15.63;;;9.30;89.00;;;;;;5038601;28;20459;-69
2022/09/22 08:06:44;;;;;;;24.27;12.90;;;9.40;88.30;;;;;;5042078;28;20577;-70
2022/09/22 08:09:11;;;;;;;21.90;10.70;;;9.50;88.10;;;;;;5037706;28;20423;-69
2022/09/22 08:11:37;;;;;;;18.87;10.43;;;9.60;87.30;;;;;;5041542;28;20518;-69
2022/09/22 08:14:05;;;;;;;27.60;12.27;;;9.70;87.00;;;;;;5039942;28;20418;-71
2022/09/22 08:16:34;;;;;;;23.97;11.03;;;9.80;86.80;;;;;;5040276;28;20455;-70
2022/09/22 08:19:14;;;;;;;24.67;11.87;;;9.90;86.60;;;;;;5043850;28;20475;-68
2022/09/22 08:21:42;;;;;;;23.13;10.67;;;10.00;86.20;;;;;;5044207;28;20913;-70
2022/09/22 08:24:10;;;;;;;23.00;11.73;;;10.20;85.50;;;;;;5045366;28;20423;-70
2022/09/22 08:26:37;;;;;;;29.43;12.10;;;10.30;84.60;;;;;;5043723;28;20949;-69
2022/09/22 08:29:04;;;;;;;19.03;11.20;;;10.40;84.30;;;;;;5049100;28;20496;-70
2022/09/22 08:31:30;;;;;;;20.33;12.33;;;10.50;83.80;;;;;;5044857;28;20467;-71
2022/09/22 08:33:56;;;;;;;29.30;12.20;;;10.60;83.30;;;;;;5047402;28;20423;-74
2022/09/22 08:36:24;;;;;;;15.33;10.70;;;10.70;82.80;;;;;;5040370;28;20554;-72
2022/09/22 08:38:50;;;;;;;17.70;11.47;;;10.80;82.70;;;;;;5046475;28;20420;-71
2022/09/22 08:41:16;;;;;;;17.57;10.80;;;10.90;81.50;;;;;;5044259;28;20434;-71
2022/09/22 08:43:54;;;;;;;22.60;10.97;;;11.00;80.80;;;;;;5048851;28;20272;-71
2022/09/22 08:46:32;;;;;;;19.50;9.90;;;11.20;80.20;;;;;;5040959;28;20548;-71
2022/09/22 08:52:10;;;;;;;10.03;5.80;;;11.40;79.00;;;;;;5038664;28;20513;-72
2022/09/22 08:54:37;;;;;;;9.83;5.00;;;11.60;77.00;;;;;;5041484;28;20427;-72
2022/09/22 08:57:40;;;;;;;7.53;5.33;;;11.80;76.20;;;;;;5041741;28;20866;-71
2022/09/22 09:00:09;;;;;;;9.17;5.60;;;11.90;75.20;;;;;;5038956;28;20427;-71
2022/09/22 09:02:54;;;;;;;11.70;5.70;;;12.00;74.90;;;;;;5043559;28;20422;-70
2022/09/22 09:05:50;;;;;;;16.00;7.23;;;12.10;74.00;;;;;;5037391;28;20471;-72
2022/09/22 09:08:38;;;;;;;9.30;5.30;;;12.20;74.30;;;;;;5044725;28;20782;-71
2022/09/22 09:11:37;;;;;;;9.43;4.27;;;12.30;73.60;;;;;;5040413;28;20463;-71
2022/09/22 09:14:10;;;;;;;7.03;3.57;;;12.40;72.10;;;;;;5041370;28;20496;-71
2022/09/22 09:16:45;;;;;;;6.70;3.70;;;12.50;71.70;;;;;;5046164;28;20455;-71
2022/09/22 09:19:15;;;;;;;7.20;3.50;;;12.70;71.10;;;;;;5049272;28;20458;-69
2022/09/22 09:21:51;;;;;;;4.93;3.47;;;12.80;70.80;;;;;;5046248;28;20423;-71
2022/09/22 09:24:26;;;;;;;5.40;3.57;;;12.90;71.30;;;;;;5049659;28;20848;-71
2022/09/22 09:26:54;;;;;;;6.50;3.40;;;12.90;71.00;;;;;;5043886;28;20840;-70
2022/09/22 09:29:25;;;;;;;4.37;3.03;;;13.00;70.20;;;;;;5050211;28;20725;-71
2022/09/22 09:31:53;;;;;;;4.43;2.67;;;13.10;70.10;;;;;;5044569;28;20554;-70
2022/09/22 09:34:25;;;;;;;5.20;2.60;;;13.10;69.80;;;;;;5039105;28;20461;-71
2022/09/22 09:37:06;;;;;;;4.90;2.77;;;13.30;69.40;;;;;;5044121;28;20539;-71
2022/09/22 09:39:38;;;;;;;5.90;2.73;;;13.40;69.40;;;;;;5038938;28;20417;-71
2022/09/22 09:42:23;;;;;;;4.97;2.67;;;13.40;69.40;;;;;;5050078;28;20572;-71
2022/09/22 09:44:53;;;;;;;5.27;2.70;;;13.60;68.60;;;;;;5050814;28;20408;-71
2022/09/22 09:47:46;;;;;;;5.17;2.97;;;13.60;68.60;;;;;;5040569;28;20540;-71
2022/09/22 09:50:13;;;;;;;8.33;2.67;;;13.70;68.80;;;;;;5041602;28;20426;-71
2022/09/22 09:52:39;;;;;;;3.67;2.23;;;13.80;67.60;;;;;;5035573;28;20529;-74
2022/09/22 09:55:24;;;;;;;6.23;3.10;;;13.90;68.20;;;;;;5044306;28;20427;-71
2022/09/22 09:58:02;;;;;;;2.97;2.20;;;14.00;66.70;;;;;;5037487;28;20246;-72
2022/09/22 10:00:30;;;;;;;4.90;2.70;;;14.10;67.00;;;;;;5041567;28;20438;-71
2022/09/22 10:03:03;;;;;;;3.73;2.37;;;14.20;66.70;;;;;;5044469;28;20416;-70
2022/09/22 10:05:31;;;;;;;5.77;2.33;;;14.20;66.30;;;;;;5041680;28;21239;-71
2022/09/22 10:08:00;;;;;;;4.00;2.87;;;14.30;66.30;;;;;;5046127;28;20426;-72
2022/09/22 10:10:28;;;;;;;5.90;3.13;;;14.40;66.00;;;;;;5039137;28;20482;-71
2022/09/22 10:13:43;;;;;;;5.60;2.87;;;14.50;65.60;;;;;;5045386;28;20431;-70
2022/09/22 10:16:20;;;;;;;4.23;2.67;;;14.60;65.60;;;;;;4979850;28;20469;-71
2022/09/22 10:18:46;;;;;;;4.37;2.17;;;14.70;65.70;;;;;;4983706;28;20457;-72
2022/09/22 10:21:16;;;;;;;3.70;2.77;;;14.80;66.30;;;;;;4985944;28;20436;-72
2022/09/22 10:23:44;;;;;;;4.00;2.70;;;14.80;65.70;;;;;;4986389;28;20505;-71
2022/09/22 10:26:27;;;;;;;5.20;3.47;;;14.80;66.00;;;;;;4976560;28;20461;-70
2022/09/22 10:29:13;;;;;;;4.50;3.07;;;14.80;66.00;;;;;;4977258;28;20447;-71
2022/09/22 10:31:40;;;;;;;2.93;2.43;;;14.90;65.80;;;;;;4965877;28;20474;-70
2022/09/22 10:34:29;;;;;;;5.23;2.73;;;14.90;65.40;;;;;;4974349;28;20460;-72
2022/09/22 10:36:56;;;;;;;3.07;1.90;;;15.20;65.40;;;;;;4981544;28;20564;-73
2022/09/22 10:39:35;;;;;;;1.90;1.60;;;15.70;63.10;;;;;;4970430;28;20435;-71
2022/09/22 10:42:06;;;;;;;3.20;1.93;;;16.30;59.30;;;;;;4982338;28;20449;-73
2022/09/22 10:44:32;;;;;;;2.80;1.93;;;16.80;58.20;;;;;;4979606;28;20858;-73
2022/09/22 10:47:05;;;;;;;3.27;1.80;;;17.20;55.70;;;;;;4981854;28;20510;-73
2022/09/22 10:49:39;;;;;;;6.23;1.83;;;17.40;53.40;;;;;;4974855;28;20187;-73
2022/09/22 10:52:36;;;;;;;2.33;1.80;;;17.40;54.40;;;;;;4994515;28;20479;-73
2022/09/22 10:55:20;;;;;;;2.30;2.10;;;17.90;54.40;;;;;;5039873;28;20432;-73
2022/09/22 10:58:07;;;;;;;2.63;2.10;;;17.90;53.30;;;;;;5035994;28;20430;-70
2022/09/22 11:00:34;;;;;;;3.03;2.10;;;17.80;53.00;;;;;;5040239;28;20825;-71
2022/09/22 11:03:37;;;;;;;2.47;1.97;;;17.60;53.70;;;;;;5038945;28;20549;-71
2022/09/22 11:12:17;;;;;;;3.67;2.00;;;18.20;53.60;;;;;;5038653;28;20472;-70
2022/09/22 11:15:02;;;;;;;2.60;1.90;;;18.40;52.20;;;;;;5043240;28;20422;-70
2022/09/22 11:18:05;;;;;;;3.17;1.73;;;18.70;51.40;;;;;;5038550;28;20453;-71
2022/09/22 11:20:35;;;;;;;3.50;2.03;;;19.00;49.10;;;;;;5033565;28;20454;-71
2022/09/22 11:23:23;;;;;;;3.20;1.77;;;19.10;48.50;;;;;;5037413;28;20438;-70
2022/09/22 11:26:07;;;;;;;2.10;1.80;;;19.30;48.20;;;;;;5034939;28;21006;-71
2022/09/22 11:29:05;;;;;;;2.80;1.73;;;19.20;49.00;;;;;;5037820;28;20412;-69
2022/09/22 11:31:42;;;;;;;3.30;1.90;;;19.50;49.00;;;;;;5038167;28;20544;-71
2022/09/22 11:34:17;;;;;;;4.83;1.90;;;20.10;46.10;;;;;;5034961;28;20903;-71
2022/09/22 11:37:26;;;;;;;3.90;2.67;;;20.30;46.10;;;;;;5037412;28;20455;-71
2022/09/22 11:40:19;;;;;;;2.77;2.10;;;20.40;45.90;;;;;;5033640;28;20431;-70
2022/09/22 11:43:11;;;;;;;3.40;1.93;;;19.80;45.30;;;;;;5037816;28;20784;-70
2022/09/22 11:46:02;;;;;;;2.43;1.83;;;19.30;47.10;;;;;;5022842;28;20463;-70
2022/09/22 14:20:09;;;;;;;2.80;1.83;;;20.60;41.50;;;;;;1485108;26;20482;-70
2022/09/22 14:22:41;;;;;;;3.20;1.80;;;20.80;40.60;;;;;;5003063;28;20442;-72
2022/09/22 14:25:20;;;;;;;1.93;1.70;;;20.80;40.70;;;;;;5003397;28;20189;-71
2022/09/22 14:27:54;;;;;;;2.70;1.50;;;20.70;40.80;;;;;;5004092;28;20427;-71
2022/09/22 14:30:25;;;;;;;1.60;1.57;;;20.60;41.20;;;;;;5004801;28;20467;-70
2022/09/22 14:32:57;;;;;;;3.97;1.83;;;20.50;41.40;;;;;;5004697;28;20478;-70
2022/09/22 14:35:28;;;;;;;4.00;1.90;;;20.50;41.00;;;;;;5007850;28;20445;-70
2022/09/22 14:37:55;;;;;;;1.83;1.70;;;20.80;41.10;;;;;;4998025;28;22127;-72
2022/09/22 14:40:26;;;;;;;3.00;1.80;;;20.70;39.10;;;;;;5003939;28;20854;-70
2022/09/22 14:42:55;;;;;;;3.80;2.03;;;20.70;39.80;;;;;;5008693;28;21025;-70
2022/09/22 14:45:23;;;;;;;2.60;1.70;;;20.70;38.80;;;;;;4988081;28;20442;-70
2022/09/22 14:48:09;;;;;;;1.40;1.40;;;20.40;39.40;;;;;;5008417;28;20444;-71
2022/09/22 14:50:40;;;;;;;2.13;1.50;;;20.50;39.80;;;;;;5007589;28;21113;-72
2022/09/22 14:53:21;;;;;;;2.10;1.70;;;20.50;39.50;;;;;;4993293;28;20469;-71
2022/09/22 14:55:51;;;;;;;2.10;1.53;;;20.40;39.80;;;;;;5002183;28;20444;-70
2022/09/22 14:58:28;;;;;;;2.40;1.90;;;20.20;40.40;;;;;;5008235;28;20428;-70
2022/09/22 15:04:01;;;;;;;1.67;1.30;;;20.00;40.60;;;;;;5002486;28;20461;-72
2022/09/22 15:06:33;;;;;;;2.77;1.80;;;19.80;41.00;;;;;;5006975;28;20452;-71
2022/09/22 15:09:04;;;;;;;2.97;1.37;;;19.90;40.40;;;;;;5003195;28;20993;-71
2022/09/22 15:12:05;;;;;;;2.10;1.70;;;20.20;40.60;;;;;;5002675;28;20496;-71
2022/09/22 15:14:33;;;;;;;2.23;1.63;;;20.50;39.50;;;;;;4946590;28;20495;-70
2022/09/22 15:20:11;;;;;;;2.50;1.83;;;21.10;39.20;;;;;;4897851;29;20528;-70
2022/09/22 15:22:37;;;;;;;2.40;1.90;;;20.90;38.30;;;;;;4949528;28;20948;-73
2022/09/22 15:25:03;;;;;;;3.50;1.60;;;20.70;39.20;;;;;;4942719;28;20453;-70
2022/09/22 15:27:30;;;;;;;2.23;1.73;;;21.10;39.40;;;;;;4950533;28;21029;-71
2022/09/22 15:29:56;;;;;;;2.40;1.53;;;21.20;38.40;;;;;;4953218;28;21061;-70
2022/09/22 15:32:22;;;;;;;3.47;2.30;;;21.30;38.60;;;;;;4949656;28;20480;-71
2022/09/22 15:34:47;;;;;;;5.80;2.00;;;21.30;39.00;;;;;;4947538;28;20504;-72
2022/09/22 15:37:20;;;;;;;4.13;1.83;;;20.90;39.10;;;;;;4949998;28;20669;-72
2022/09/22 15:39:45;;;;;;;1.70;1.60;;;20.90;39.50;;;;;;4948185;28;20218;-70
2022/09/22 15:42:11;;;;;;;3.20;1.70;;;20.80;40.00;;;;;;4951878;28;20428;-71
2022/09/22 15:44:36;;;;;;;2.20;1.83;;;20.40;40.70;;;;;;4953756;28;20184;-71
2022/09/22 15:47:02;;;;;;;3.20;2.10;;;20.00;42.00;;;;;;4948613;28;20232;-71
2022/09/22 15:49:31;;;;;;;3.40;2.93;;;19.70;42.30;;;;;;4995066;28;20216;-70
2022/09/22 15:51:57;;;;;;;6.03;2.20;;;19.40;43.00;;;;;;4986920;28;20260;-70
2022/09/22 15:54:23;;;;;;;3.50;1.93;;;19.00;43.20;;;;;;5007056;28;20792;-70
2022/09/22 15:56:54;;;;;;;6.73;2.10;;;18.80;44.20;;;;;;5001547;28;20211;-71
2022/09/22 15:59:26;;;;;;;3.60;2.83;;;18.80;44.60;;;;;;4997986;28;20813;-69
2022/09/22 16:01:55;;;;;;;2.33;1.67;;;18.60;44.30;;;;;;4999886;28;20574;-71